首页
METAR-TAF:

METAR-TAF

机场 :

尚贝里 / 艾克斯-就业辅导组班, 法国

纬度: 45-39N, 经度: 005-53E, 海拔: 235米

当前天气观测

该预报发布于37分钟前的01:00 UTC
风速2节,风向多变
温度 9°C
湿度 87%
气压 1018 hPa
能见度10公里或以上
1500米以下无云,无积雨云

METAR: LFLB 230100Z AUTO VRB02KT CAVOK 09/07 Q1018 NOSIG

时间: 03:37 (01:37 UTC)

预报

该预报发布于2小时和37分钟前的23:00 UTC
预报有效从23日的 00点(UTC)到 23日的 24点(UTC)
风速6节,风向
能见度10公里或以上
1500米以下无云,无积雨云
成为
从 23日的 16点(UTC)到 23日的 18点(UTC)
风速3节,风向多变

TAF: LFLB 222300Z 2300/2324 36006KT CAVOK BECMG 2316/2318 VRB03KT

超过4000个机场的气象观测和天气预报(METAR&TAF报告)。

可查询的气象台以黄色和红色小点在地图上表示。

将鼠标移到小点上方,可查看气象台名称。

然后点击查看天气观测和预报。

如需切换地图:点击带黑十字的绿色按钮放大地图;点击带横线的绿色按钮缩小地图;或者点击绿色箭头查看邻近地区的地图。


METAR-TAF: